sensor_id;sensor_type;location;lat;lon;timestamp;pressure;altitude;pressure_sealevel;temperature;humidity
41636;BME280;27623;51.966;4.602;2022-12-11T00:01:41;63460.66;;;2.53;100.00
41636;BME280;27623;51.966;4.602;2022-12-11T00:04:07;63515.25;;;2.50;100.00
41636;BME280;27623;51.966;4.602;2022-12-11T00:06:32;63517.41;;;2.52;100.00
41636;BME280;27623;51.966;4.602;2022-12-11T00:08:58;63505.38;;;2.53;100.00
41636;BME280;27623;51.966;4.602;2022-12-11T00:11:24;63508.31;;;2.65;100.00
41636;BME280;27623;51.966;4.602;2022-12-11T00:13:49;63516.53;;;2.54;100.00
41636;BME280;27623;51.966;4.602;2022-12-11T00:16:15;63487.66;;;2.71;100.00
41636;BME280;27623;51.966;4.602;2022-12-11T00:18:41;63473.22;;;2.46;100.00
41636;BME280;27623;51.966;4.602;2022-12-11T00:21:08;63509.88;;;2.52;100.00
41636;BME280;27623;51.966;4.602;2022-12-11T00:23:35;63512.22;;;2.57;100.00
41636;BME280;27623;51.966;4.602;2022-12-11T00:26:04;63528.78;;;2.63;100.00
41636;BME280;27623;51.966;4.602;2022-12-11T00:28:30;63492.41;;;2.40;100.00
41636;BME280;27623;51.966;4.602;2022-12-11T00:30:56;63515.66;;;2.62;100.00
41636;BME280;27623;51.966;4.602;2022-12-11T00:33:21;63514.63;;;2.68;100.00
41636;BME280;27623;51.966;4.602;2022-12-11T00:35:46;63512.13;;;2.75;100.00
41636;BME280;27623;51.966;4.602;2022-12-11T00:38:18;63537.56;;;2.59;100.00
41636;BME280;27623;51.966;4.602;2022-12-11T00:40:44;63519.03;;;2.54;100.00
41636;BME280;27623;51.966;4.602;2022-12-11T00:43:10;63487.25;;;2.52;100.00
41636;BME280;27623;51.966;4.602;2022-12-11T00:45:37;63542.25;;;2.61;100.00
41636;BME280;27623;51.966;4.602;2022-12-11T00:48:03;63504.16;;;2.56;100.00
41636;BME280;27623;51.966;4.602;2022-12-11T00:50:30;63534.72;;;2.61;100.00
41636;BME280;27623;51.966;4.602;2022-12-11T00:52:56;63474.94;;;2.69;100.00
41636;BME280;27623;51.966;4.602;2022-12-11T00:55:21;63512.78;;;2.57;100.00
41636;BME280;27623;51.966;4.602;2022-12-11T00:57:50;63500.94;;;2.60;100.00
41636;BME280;27623;51.966;4.602;2022-12-11T01:00:15;63491.59;;;2.63;100.00
41636;BME280;27623;51.966;4.602;2022-12-11T01:02:41;63503.22;;;2.51;100.00
41636;BME280;27623;51.966;4.602;2022-12-11T01:05:09;63524.97;;;2.52;100.00
41636;BME280;27623;51.966;4.602;2022-12-11T01:07:35;63498.38;;;2.53;100.00
41636;BME280;27623;51.966;4.602;2022-12-11T01:10:01;63485.22;;;2.38;100.00
41636;BME280;27623;51.966;4.602;2022-12-11T01:12:45;63501.09;;;2.56;100.00
41636;BME280;27623;51.966;4.602;2022-12-11T01:15:11;63508.81;;;2.58;100.00
41636;BME280;27623;51.966;4.602;2022-12-11T01:17:36;63530.50;;;2.86;100.00
41636;BME280;27623;51.966;4.602;2022-12-11T01:20:03;63536.94;;;2.78;100.00
41636;BME280;27623;51.966;4.602;2022-12-11T01:22:29;63472.91;;;2.62;100.00
41636;BME280;27623;51.966;4.602;2022-12-11T01:24:55;63481.38;;;2.68;100.00
41636;BME280;27623;51.966;4.602;2022-12-11T01:27:20;63509.59;;;2.68;100.00
41636;BME280;27623;51.966;4.602;2022-12-11T01:29:47;63499.53;;;2.68;100.00
41636;BME280;27623;51.966;4.602;2022-12-11T01:32:14;63537.31;;;2.83;100.00
41636;BME280;27623;51.966;4.602;2022-12-11T01:34:40;63527.44;;;2.85;100.00
41636;BME280;27623;51.966;4.602;2022-12-11T01:37:05;63524.16;;;2.75;100.00
41636;BME280;27623;51.966;4.602;2022-12-11T01:39:31;63499.66;;;2.57;100.00
41636;BME280;27623;51.966;4.602;2022-12-11T01:41:58;63523.63;;;2.74;100.00
41636;BME280;27623;51.966;4.602;2022-12-11T01:46:54;63491.47;;;2.35;100.00
41636;BME280;27623;51.966;4.602;2022-12-11T01:52:02;63484.75;;;2.59;100.00
41636;BME280;27623;51.966;4.602;2022-12-11T01:54:30;63533.66;;;2.67;100.00
41636;BME280;27623;51.966;4.602;2022-12-11T01:57:01;63500.06;;;2.69;100.00
41636;BME280;27623;51.966;4.602;2022-12-11T01:59:30;63490.97;;;2.41;100.00
41636;BME280;27623;51.966;4.602;2022-12-11T02:02:09;63482.50;;;2.36;100.00
41636;BME280;27623;51.966;4.602;2022-12-11T02:04:37;63490.47;;;2.48;100.00
41636;BME280;27623;51.966;4.602;2022-12-11T02:07:07;63509.16;;;2.56;100.00
41636;BME280;27623;51.966;4.602;2022-12-11T02:09:35;63529.88;;;2.71;100.00
41636;BME280;27623;51.966;4.602;2022-12-11T02:15:11;63503.91;;;2.39;100.00
41636;BME280;27623;51.966;4.602;2022-12-11T02:18:09;63501.34;;;2.32;100.00
41636;BME280;27623;51.966;4.602;2022-12-11T02:20:48;63461.84;;;2.28;100.00
41636;BME280;27623;51.966;4.602;2022-12-11T02:23:32;63482.84;;;2.34;100.00
41636;BME280;27623;51.966;4.602;2022-12-11T02:26:20;63474.75;;;2.26;100.00
41636;BME280;27623;51.966;4.602;2022-12-11T02:28:54;63534.31;;;2.56;100.00
41636;BME280;27623;51.966;4.602;2022-12-11T02:34:11;63507.78;;;2.71;100.00
41636;BME280;27623;51.966;4.602;2022-12-11T02:36:40;63536.53;;;2.65;100.00
41636;BME280;27623;51.966;4.602;2022-12-11T02:39:09;63484.72;;;2.52;100.00
41636;BME280;27623;51.966;4.602;2022-12-11T02:41:39;63518.78;;;2.77;100.00
41636;BME280;27623;51.966;4.602;2022-12-11T02:44:10;63505.66;;;2.76;100.00
41636;BME280;27623;51.966;4.602;2022-12-11T02:46:36;63522.56;;;2.81;100.00
41636;BME280;27623;51.966;4.602;2022-12-11T02:49:04;63535.09;;;2.66;100.00
41636;BME280;27623;51.966;4.602;2022-12-11T02:51:35;63525.44;;;2.79;100.00
41636;BME280;27623;51.966;4.602;2022-12-11T02:54:05;63509.06;;;2.75;100.00
41636;BME280;27623;51.966;4.602;2022-12-11T02:56:38;63493.06;;;2.69;100.00
41636;BME280;27623;51.966;4.602;2022-12-11T02:59:13;63521.44;;;2.72;100.00
41636;BME280;27623;51.966;4.602;2022-12-11T03:01:40;63544.00;;;2.91;100.00
41636;BME280;27623;51.966;4.602;2022-12-11T03:04:06;63508.69;;;2.70;100.00
41636;BME280;27623;51.966;4.602;2022-12-11T03:06:35;63533.72;;;2.82;100.00
41636;BME280;27623;51.966;4.602;2022-12-11T03:09:03;63511.56;;;2.68;100.00
41636;BME280;27623;51.966;4.602;2022-12-11T03:11:28;63502.88;;;2.53;100.00
41636;BME280;27623;51.966;4.602;2022-12-11T03:13:54;63521.59;;;2.61;100.00
41636;BME280;27623;51.966;4.602;2022-12-11T03:16:41;63518.66;;;2.49;100.00
41636;BME280;27623;51.966;4.602;2022-12-11T03:19:35;63481.34;;;2.61;100.00
41636;BME280;27623;51.966;4.602;2022-12-11T03:22:13;63495.75;;;2.65;100.00
41636;BME280;27623;51.966;4.602;2022-12-11T03:24:53;63485.81;;;2.53;100.00
41636;BME280;27623;51.966;4.602;2022-12-11T03:27:32;63490.53;;;2.62;100.00
41636;BME280;27623;51.966;4.602;2022-12-11T03:30:11;63529.53;;;2.73;100.00
41636;BME280;27623;51.966;4.602;2022-12-11T03:35:31;63527.75;;;2.69;100.00
41636;BME280;27623;51.966;4.602;2022-12-11T03:38:03;63528.41;;;2.58;100.00
41636;BME280;27623;51.966;4.602;2022-12-11T03:40:31;63477.31;;;2.40;100.00
41636;BME280;27623;51.966;4.602;2022-12-11T03:42:58;63481.53;;;2.63;100.00
41636;BME280;27623;51.966;4.602;2022-12-11T03:45:26;63517.59;;;2.55;100.00
41636;BME280;27623;51.966;4.602;2022-12-11T03:47:56;63460.13;;;2.46;100.00
41636;BME280;27623;51.966;4.602;2022-12-11T03:50:25;63488.66;;;2.44;100.00
41636;BME280;27623;51.966;4.602;2022-12-11T03:52:52;63494.06;;;2.49;100.00
41636;BME280;27623;51.966;4.602;2022-12-11T03:55:20;63478.94;;;2.42;100.00
41636;BME280;27623;51.966;4.602;2022-12-11T03:57:52;63525.78;;;2.76;100.00
41636;BME280;27623;51.966;4.602;2022-12-11T04:00:19;63508.78;;;2.44;100.00
41636;BME280;27623;51.966;4.602;2022-12-11T04:02:45;63505.47;;;2.74;100.00
41636;BME280;27623;51.966;4.602;2022-12-11T04:05:31;63532.63;;;2.81;100.00
41636;BME280;27623;51.966;4.602;2022-12-11T04:07:56;63539.13;;;2.87;100.00
41636;BME280;27623;51.966;4.602;2022-12-11T04:10:21;63533.03;;;2.86;100.00
41636;BME280;27623;51.966;4.602;2022-12-11T04:12:47;63498.97;;;2.61;100.00
41636;BME280;27623;51.966;4.602;2022-12-11T04:15:12;63522.06;;;2.87;100.00
41636;BME280;27623;51.966;4.602;2022-12-11T04:17:38;63516.84;;;2.92;100.00
41636;BME280;27623;51.966;4.602;2022-12-11T04:20:22;63506.06;;;2.89;100.00
41636;BME280;27623;51.966;4.602;2022-12-11T04:23:11;63528.81;;;2.70;100.00
41636;BME280;27623;51.966;4.602;2022-12-11T04:26:10;63505.22;;;2.57;100.00
41636;BME280;27623;51.966;4.602;2022-12-11T04:28:37;63565.09;;;2.71;100.00
41636;BME280;27623;51.966;4.602;2022-12-11T04:31:03;63545.22;;;2.81;100.00
41636;BME280;27623;51.966;4.602;2022-12-11T04:33:29;63514.44;;;2.73;100.00
41636;BME280;27623;51.966;4.602;2022-12-11T04:35:57;63556.59;;;2.58;100.00
41636;BME280;27623;51.966;4.602;2022-12-11T04:38:23;63506.91;;;2.73;100.00
41636;BME280;27623;51.966;4.602;2022-12-11T04:40:48;63496.63;;;2.63;100.00
41636;BME280;27623;51.966;4.602;2022-12-11T04:43:13;63509.72;;;2.57;100.00
41636;BME280;27623;51.966;4.602;2022-12-11T04:45:39;63450.25;;;2.55;100.00
41636;BME280;27623;51.966;4.602;2022-12-11T04:48:05;63508.44;;;2.53;100.00
41636;BME280;27623;51.966;4.602;2022-12-11T04:50:31;63509.06;;;2.68;100.00
41636;BME280;27623;51.966;4.602;2022-12-11T04:52:56;63498.72;;;2.51;100.00
41636;BME280;27623;51.966;4.602;2022-12-11T04:55:23;63520.78;;;2.84;100.00
41636;BME280;27623;51.966;4.602;2022-12-11T04:57:48;63504.97;;;2.81;100.00
41636;BME280;27623;51.966;4.602;2022-12-11T05:00:14;63515.13;;;2.62;100.00
41636;BME280;27623;51.966;4.602;2022-12-11T05:02:40;63518.59;;;2.74;100.00
41636;BME280;27623;51.966;4.602;2022-12-11T05:05:07;63559.28;;;2.94;100.00
41636;BME280;27623;51.966;4.602;2022-12-11T05:07:34;63507.03;;;2.61;100.00
41636;BME280;27623;51.966;4.602;2022-12-11T05:09:59;63466.16;;;2.80;100.00
41636;BME280;27623;51.966;4.602;2022-12-11T05:12:25;63554.38;;;2.82;100.00
41636;BME280;27623;51.966;4.602;2022-12-11T05:14:51;63525.63;;;2.81;100.00
41636;BME280;27623;51.966;4.602;2022-12-11T05:17:17;63539.69;;;2.87;100.00
41636;BME280;27623;51.966;4.602;2022-12-11T05:19:43;63526.31;;;2.70;100.00
41636;BME280;27623;51.966;4.602;2022-12-11T05:22:08;63517.16;;;2.75;100.00
41636;BME280;27623;51.966;4.602;2022-12-11T05:24:34;63559.91;;;2.75;100.00
41636;BME280;27623;51.966;4.602;2022-12-11T05:26:59;63539.44;;;2.78;100.00
41636;BME280;27623;51.966;4.602;2022-12-11T05:29:24;63479.03;;;2.63;100.00
41636;BME280;27623;51.966;4.602;2022-12-11T05:31:50;63505.56;;;2.48;100.00
41636;BME280;27623;51.966;4.602;2022-12-11T05:34:15;63502.56;;;2.62;100.00
41636;BME280;27623;51.966;4.602;2022-12-11T05:36:41;63482.59;;;2.57;100.00
41636;BME280;27623;51.966;4.602;2022-12-11T05:39:06;63513.50;;;2.60;100.00
41636;BME280;27623;51.966;4.602;2022-12-11T05:41:32;63484.94;;;2.62;100.00
41636;BME280;27623;51.966;4.602;2022-12-11T05:43:58;63504.91;;;2.66;100.00
41636;BME280;27623;51.966;4.602;2022-12-11T05:46:28;63534.56;;;2.73;100.00
41636;BME280;27623;51.966;4.602;2022-12-11T05:48:57;63571.66;;;2.91;100.00
41636;BME280;27623;51.966;4.602;2022-12-11T05:51:24;63536.97;;;2.92;100.00
41636;BME280;27623;51.966;4.602;2022-12-11T05:53:50;63499.75;;;2.78;100.00
41636;BME280;27623;51.966;4.602;2022-12-11T05:56:35;63533.13;;;2.74;100.00
41636;BME280;27623;51.966;4.602;2022-12-11T05:59:02;63509.06;;;2.68;100.00
41636;BME280;27623;51.966;4.602;2022-12-11T06:01:31;63481.53;;;2.63;100.00
41636;BME280;27623;51.966;4.602;2022-12-11T06:03:58;63522.44;;;2.52;100.00
41636;BME280;27623;51.966;4.602;2022-12-11T06:06:25;63514.00;;;2.54;100.00
41636;BME280;27623;51.966;4.602;2022-12-11T06:08:54;63493.34;;;2.53;100.00
41636;BME280;27623;51.966;4.602;2022-12-11T06:11:22;63466.03;;;2.51;100.00
41636;BME280;27623;51.966;4.602;2022-12-11T06:13:48;63540.19;;;2.81;100.00
41636;BME280;27623;51.966;4.602;2022-12-11T06:16:14;63528.59;;;2.60;100.00
41636;BME280;27623;51.966;4.602;2022-12-11T06:18:41;63521.59;;;2.61;100.00
41636;BME280;27623;51.966;4.602;2022-12-11T06:21:14;63501.47;;;2.61;100.00
41636;BME280;27623;51.966;4.602;2022-12-11T06:23:40;63513.69;;;2.63;100.00
41636;BME280;27623;51.966;4.602;2022-12-11T06:26:06;63477.31;;;2.40;100.00
41636;BME280;27623;51.966;4.602;2022-12-11T06:28:32;63490.09;;;2.50;100.00
41636;BME280;27623;51.966;4.602;2022-12-11T06:30:58;63506.75;;;2.78;100.00
41636;BME280;27623;51.966;4.602;2022-12-11T06:33:24;63530.47;;;2.79;100.00
41636;BME280;27623;51.966;4.602;2022-12-11T06:35:49;63544.00;;;2.91;100.00
41636;BME280;27623;51.966;4.602;2022-12-11T06:38:15;63517.94;;;2.86;100.00
41636;BME280;27623;51.966;4.602;2022-12-11T06:40:41;63544.13;;;2.80;100.00
41636;BME280;27623;51.966;4.602;2022-12-11T06:43:07;63501.91;;;2.80;100.00
41636;BME280;27623;51.966;4.602;2022-12-11T06:45:32;63505.00;;;2.88;100.00
41636;BME280;27623;51.966;4.602;2022-12-11T06:47:58;63530.84;;;2.84;100.00
41636;BME280;27623;51.966;4.602;2022-12-11T06:50:23;63483.91;;;2.68;100.00
41636;BME280;27623;51.966;4.602;2022-12-11T06:52:49;63515.63;;;2.55;100.00
41636;BME280;27623;51.966;4.602;2022-12-11T06:55:14;63529.28;;;2.56;100.00
41636;BME280;27623;51.966;4.602;2022-12-11T06:57:40;63455.59;;;2.39;100.00
41636;BME280;27623;51.966;4.602;2022-12-11T07:00:07;63456.13;;;2.39;100.00
41636;BME280;27623;51.966;4.602;2022-12-11T07:02:32;63441.66;;;2.14;100.00
41636;BME280;27623;51.966;4.602;2022-12-11T07:04:58;63452.34;;;2.36;100.00
41636;BME280;27623;51.966;4.602;2022-12-11T07:07:23;63515.22;;;2.43;100.00
41636;BME280;27623;51.966;4.602;2022-12-11T07:09:49;63489.53;;;2.42;100.00
41636;BME280;27623;51.966;4.602;2022-12-11T07:12:15;63507.34;;;2.45;100.00
41636;BME280;27623;51.966;4.602;2022-12-11T07:14:41;63481.50;;;2.49;100.00
41636;BME280;27623;51.966;4.602;2022-12-11T07:17:06;63489.50;;;2.35;100.00
41636;BME280;27623;51.966;4.602;2022-12-11T07:19:31;63487.44;;;2.55;100.00
41636;BME280;27623;51.966;4.602;2022-12-11T07:21:57;63483.19;;;2.72;100.00
41636;BME280;27623;51.966;4.602;2022-12-11T07:24:22;63491.09;;;2.30;100.00
41636;BME280;27623;51.966;4.602;2022-12-11T07:26:48;63499.41;;;2.40;100.00
41636;BME280;27623;51.966;4.602;2022-12-11T07:29:14;63487.72;;;2.38;100.00
41636;BME280;27623;51.966;4.602;2022-12-11T07:31:39;63468.91;;;2.42;100.00
41636;BME280;27623;51.966;4.602;2022-12-11T07:34:05;63460.81;;;2.41;100.00
41636;BME280;27623;51.966;4.602;2022-12-11T07:36:31;63491.03;;;2.56;100.00
41636;BME280;27623;51.966;4.602;2022-12-11T07:38:58;63469.75;;;2.33;100.00
41636;BME280;27623;51.966;4.602;2022-12-11T07:41:24;63509.50;;;2.47;100.00
41636;BME280;27623;51.966;4.602;2022-12-11T07:43:52;63478.06;;;2.51;100.00
41636;BME280;27623;51.966;4.602;2022-12-11T07:46:21;63477.00;;;2.50;100.00
41636;BME280;27623;51.966;4.602;2022-12-11T07:48:47;63540.16;;;2.73;100.00
41636;BME280;27623;51.966;4.602;2022-12-11T07:53:41;63510.31;;;2.71;100.00
41636;BME280;27623;51.966;4.602;2022-12-11T07:56:07;63550.03;;;2.78;100.00
41636;BME280;27623;51.966;4.602;2022-12-11T07:58:33;63528.31;;;2.76;100.00
41636;BME280;27623;51.966;4.602;2022-12-11T08:00:59;63524.94;;;2.85;100.00
41636;BME280;27623;51.966;4.602;2022-12-11T08:03:24;63522.53;;;2.66;100.00
41636;BME280;27623;51.966;4.602;2022-12-11T08:05:51;63494.09;;;2.56;100.00
41636;BME280;27623;51.966;4.602;2022-12-11T08:08:17;63504.75;;;2.71;100.00
41636;BME280;27623;51.966;4.602;2022-12-11T08:10:43;63502.22;;;2.64;100.00
41636;BME280;27623;51.966;4.602;2022-12-11T08:13:08;63539.06;;;2.72;100.00
41636;BME280;27623;51.966;4.602;2022-12-11T08:15:34;63557.47;;;2.90;100.00
41636;BME280;27623;51.966;4.602;2022-12-11T08:18:00;63493.47;;;2.82;100.00
41636;BME280;27623;51.966;4.602;2022-12-11T08:20:25;63526.84;;;2.70;100.00
41636;BME280;27623;51.966;4.602;2022-12-11T08:22:51;63525.59;;;2.74;100.00
41636;BME280;27623;51.966;4.602;2022-12-11T08:25:16;63537.81;;;2.76;100.00
41636;BME280;27623;51.966;4.602;2022-12-11T08:27:42;63495.25;;;2.79;100.00
41636;BME280;27623;51.966;4.602;2022-12-11T08:30:10;63542.38;;;2.90;100.00
41636;BME280;27623;51.966;4.602;2022-12-11T08:32:36;63532.88;;;2.90;100.00
41636;BME280;27623;51.966;4.602;2022-12-11T08:35:01;63534.66;;;2.87;100.00
41636;BME280;27623;51.966;4.602;2022-12-11T08:37:27;63518.09;;;2.81;100.00
41636;BME280;27623;51.966;4.602;2022-12-11T08:39:53;63538.53;;;2.72;100.00
41636;BME280;27623;51.966;4.602;2022-12-11T08:42:19;63584.09;;;2.96;100.00
41636;BME280;27623;51.966;4.602;2022-12-11T08:44:45;63529.06;;;2.87;100.00
41636;BME280;27623;51.966;4.602;2022-12-11T08:47:10;63498.19;;;2.98;100.00
41636;BME280;27623;51.966;4.602;2022-12-11T08:49:36;63518.97;;;2.80;100.00
41636;BME280;27623;51.966;4.602;2022-12-11T08:52:04;63464.41;;;2.50;100.00
41636;BME280;27623;51.966;4.602;2022-12-11T08:54:29;63500.09;;;2.76;100.00
41636;BME280;27623;51.966;4.602;2022-12-11T08:56:56;63483.38;;;2.67;100.00
41636;BME280;27623;51.966;4.602;2022-12-11T08:59:21;63500.06;;;2.69;100.00
41636;BME280;27623;51.966;4.602;2022-12-11T09:01:47;63500.13;;;2.83;100.00
41636;BME280;27623;51.966;4.602;2022-12-11T09:04:13;63541.31;;;2.89;100.00
41636;BME280;27623;51.966;4.602;2022-12-11T09:06:39;63493.81;;;2.80;100.00
41636;BME280;27623;51.966;4.602;2022-12-11T09:09:04;63520.63;;;2.88;100.00
41636;BME280;27623;51.966;4.602;2022-12-11T09:11:32;63505.88;;;2.86;100.00
41636;BME280;27623;51.966;4.602;2022-12-11T09:13:58;63536.97;;;2.85;100.00
41636;BME280;27623;51.966;4.602;2022-12-11T09:16:25;63595.47;;;3.06;100.00
41636;BME280;27623;51.966;4.602;2022-12-11T09:18:53;63543.63;;;2.86;100.00
41636;BME280;27623;51.966;4.602;2022-12-11T09:21:20;63552.78;;;2.88;100.00
41636;BME280;27623;51.966;4.602;2022-12-11T09:23:51;63537.50;;;2.85;100.00
41636;BME280;27623;51.966;4.602;2022-12-11T09:26:17;63539.88;;;2.90;100.00
41636;BME280;27623;51.966;4.602;2022-12-11T09:28:44;63556.25;;;3.00;100.00
41636;BME280;27623;51.966;4.602;2022-12-11T09:31:15;63511.97;;;2.80;100.00
41636;BME280;27623;51.966;4.602;2022-12-11T09:33:41;63513.94;;;2.80;100.00
41636;BME280;27623;51.966;4.602;2022-12-11T09:36:07;63522.53;;;2.73;100.00
41636;BME280;27623;51.966;4.602;2022-12-11T09:38:34;63519.13;;;2.68;100.00
41636;BME280;27623;51.966;4.602;2022-12-11T09:41:01;63493.03;;;2.62;100.00
41636;BME280;27623;51.966;4.602;2022-12-11T09:46:04;63489.66;;;2.71;100.00
41636;BME280;27623;51.966;4.602;2022-12-11T09:48:32;63523.13;;;2.81;100.00
41636;BME280;27623;51.966;4.602;2022-12-11T09:51:04;63493.38;;;2.60;100.00
41636;BME280;27623;51.966;4.602;2022-12-11T09:53:34;63481.56;;;2.70;100.00
41636;BME280;27623;51.966;4.602;2022-12-11T09:56:31;63523.28;;;2.76;100.00
41636;BME280;27623;51.966;4.602;2022-12-11T09:59:31;63562.34;;;2.94;100.00
41636;BME280;27623;51.966;4.602;2022-12-11T10:08:28;63509.59;;;2.68;100.00
41636;BME280;27623;51.966;4.602;2022-12-11T10:11:21;63491.91;;;2.54;100.00
41636;BME280;27623;51.966;4.602;2022-12-11T10:16:35;63499.81;;;2.52;100.00
41636;BME280;27623;51.966;4.602;2022-12-11T10:19:01;63505.56;;;2.48;100.00
41636;BME280;27623;51.966;4.602;2022-12-11T10:21:35;63492.22;;;2.38;100.00
41636;BME280;27623;51.966;4.602;2022-12-11T10:24:04;63490.91;;;2.67;100.00
41636;BME280;27623;51.966;4.602;2022-12-11T10:26:37;63532.72;;;2.62;100.00
41636;BME280;27623;51.966;4.602;2022-12-11T10:29:05;63545.59;;;2.86;100.00
41636;BME280;27623;51.966;4.602;2022-12-11T10:34:12;63513.38;;;2.72;100.00
41636;BME280;27623;51.966;4.602;2022-12-11T10:36:40;63529.88;;;2.71;100.00
41636;BME280;27623;51.966;4.602;2022-12-11T10:39:18;63519.16;;;2.82;100.00
41636;BME280;27623;51.966;4.602;2022-12-11T10:41:52;63509.50;;;2.87;100.00
41636;BME280;27623;51.966;4.602;2022-12-11T10:44:20;63514.25;;;2.70;100.00
41636;BME280;27623;51.966;4.602;2022-12-11T10:46:48;63489.44;;;2.61;100.00
41636;BME280;27623;51.966;4.602;2022-12-11T10:49:28;63509.63;;;2.75;100.00
41636;BME280;27623;51.966;4.602;2022-12-11T10:51:54;63498.25;;;2.65;100.00
41636;BME280;27623;51.966;4.602;2022-12-11T10:54:39;63500.47;;;2.81;100.00
41636;BME280;27623;51.966;4.602;2022-12-11T10:57:09;63509.03;;;2.61;100.00
41636;BME280;27623;51.966;4.602;2022-12-11T10:59:48;63502.41;;;2.66;100.00
41636;BME280;27623;51.966;4.602;2022-12-11T11:02:22;63508.31;;;2.65;100.00
41636;BME280;27623;51.966;4.602;2022-12-11T11:04:49;63483.13;;;2.58;100.00
41636;BME280;27623;51.966;4.602;2022-12-11T11:07:24;63539.47;;;2.85;100.00
41636;BME280;27623;51.966;4.602;2022-12-11T11:12:38;63528.72;;;2.89;100.00
41636;BME280;27623;51.966;4.602;2022-12-11T11:15:12;63529.06;;;2.87;100.00
41636;BME280;27623;51.966;4.602;2022-12-11T11:17:54;63525.16;;;3.02;100.00
41636;BME280;27623;51.966;4.602;2022-12-11T11:20:22;63547.03;;;2.85;100.00
41636;BME280;27623;51.966;4.602;2022-12-11T11:23:00;63516.16;;;2.89;100.00
41636;BME280;27623;51.966;4.602;2022-12-11T11:25:28;63547.34;;;2.75;100.00
41636;BME280;27623;51.966;4.602;2022-12-11T11:27:55;63560.16;;;2.85;100.00
41636;BME280;27623;51.966;4.602;2022-12-11T11:30:27;63515.81;;;2.98;100.00
41636;BME280;27623;51.966;4.602;2022-12-11T11:33:03;63533.34;;;2.76;100.00
41636;BME280;27623;51.966;4.602;2022-12-11T11:35:30;63540.03;;;2.92;100.00
41636;BME280;27623;51.966;4.602;2022-12-11T11:38:12;63514.53;;;2.87;100.00
41636;BME280;27623;51.966;4.602;2022-12-11T11:41:10;63517.00;;;2.80;100.00
41636;BME280;27623;51.966;4.602;2022-12-11T11:43:55;63520.97;;;2.86;100.00
41636;BME280;27623;51.966;4.602;2022-12-11T11:46:38;63528.38;;;2.98;100.00
41636;BME280;27623;51.966;4.602;2022-12-11T11:57:44;63539.69;;;2.87;100.00
41636;BME280;27623;51.966;4.602;2022-12-11T12:00:17;63540.19;;;2.81;100.00
41636;BME280;27623;51.966;4.602;2022-12-11T12:02:43;63524.41;;;2.92;100.00
41636;BME280;27623;51.966;4.602;2022-12-11T12:05:12;63549.22;;;2.94;100.00
41636;BME280;27623;51.966;4.602;2022-12-11T12:08:00;63546.69;;;2.87;100.00
41636;BME280;27623;51.966;4.602;2022-12-11T12:10:33;63510.84;;;2.72;100.00
41636;BME280;27623;51.966;4.602;2022-12-11T12:13:48;63533.69;;;2.74;100.00
41636;BME280;27623;51.966;4.602;2022-12-11T12:19:37;63489.66;;;2.71;100.00
41636;BME280;27623;51.966;4.602;2022-12-11T12:39:00;63530.88;;;2.91;100.00
41636;BME280;27623;51.966;4.602;2022-12-11T12:41:35;63546.50;;;2.84;100.00
41636;BME280;27623;51.966;4.602;2022-12-11T12:44:17;63547.91;;;2.83;100.00
41636;BME280;27623;51.966;4.602;2022-12-11T12:49:31;63529.78;;;2.83;100.00
41636;BME280;27623;51.966;4.602;2022-12-11T12:51:59;63565.59;;;2.97;100.00
41636;BME280;27623;51.966;4.602;2022-12-11T12:54:26;63569.56;;;3.03;100.00
41636;BME280;27623;51.966;4.602;2022-12-11T12:56:55;63588.47;;;3.14;100.00
41636;BME280;27623;51.966;4.602;2022-12-11T12:59:24;63556.72;;;3.27;100.00
41636;BME280;27623;51.966;4.602;2022-12-11T13:01:53;63542.09;;;3.06;100.00
41636;BME280;27623;51.966;4.602;2022-12-11T13:04:39;63531.63;;;3.01;100.00
41636;BME280;27623;51.966;4.602;2022-12-11T13:07:19;63558.16;;;3.26;100.00
41636;BME280;27623;51.966;4.602;2022-12-11T13:10:06;63550.91;;;3.17;100.00
41636;BME280;27623;51.966;4.602;2022-12-11T13:12:43;63510.78;;;2.98;100.00
41636;BME280;27623;51.966;4.602;2022-12-11T13:15:33;63540.84;;;3.09;100.00
41636;BME280;27623;51.966;4.602;2022-12-11T13:18:05;63585.41;;;3.14;100.00
41636;BME280;27623;51.966;4.602;2022-12-11T13:20:32;63568.84;;;3.00;100.00
41636;BME280;27623;51.966;4.602;2022-12-11T13:23:28;63534.31;;;2.96;100.00
41636;BME280;27623;51.966;4.602;2022-12-11T13:25:57;63576.88;;;2.94;100.00
41636;BME280;27623;51.966;4.602;2022-12-11T13:28:25;63530.91;;;2.98;100.00
41636;BME280;27623;51.966;4.602;2022-12-11T13:31:00;63526.03;;;2.93;100.00
41636;BME280;27623;51.966;4.602;2022-12-11T13:33:26;63539.38;;;3.03;100.00
41636;BME280;27623;51.966;4.602;2022-12-11T13:38:36;63584.44;;;3.34;100.00
41636;BME280;27623;51.966;4.602;2022-12-11T13:41:09;63571.50;;;3.43;100.00
41636;BME280;27623;51.966;4.602;2022-12-11T13:43:37;63596.66;;;3.36;100.00
41636;BME280;27623;51.966;4.602;2022-12-11T13:46:09;63623.91;;;3.57;100.00
41636;BME280;27623;51.966;4.602;2022-12-11T13:48:45;63564.81;;;3.34;100.00
41636;BME280;27623;51.966;4.602;2022-12-11T13:51:15;63602.66;;;3.49;100.00
41636;BME280;27623;51.966;4.602;2022-12-11T13:53:41;63598.88;;;3.45;100.00
41636;BME280;27623;51.966;4.602;2022-12-11T13:56:16;63596.69;;;3.43;100.00
41636;BME280;27623;51.966;4.602;2022-12-11T13:58:42;63581.25;;;3.45;100.00
41636;BME280;27623;51.966;4.602;2022-12-11T14:01:23;63601.94;;;3.45;100.00
41636;BME280;27623;51.966;4.602;2022-12-11T14:04:06;63594.38;;;3.45;100.00
41636;BME280;27623;51.966;4.602;2022-12-11T14:06:33;63624.97;;;3.51;100.00
41636;BME280;27623;51.966;4.602;2022-12-11T14:09:01;63611.13;;;3.54;100.00
41636;BME280;27623;51.966;4.602;2022-12-11T14:11:33;63624.09;;;3.59;100.00
41636;BME280;27623;51.966;4.602;2022-12-11T14:14:02;63613.47;;;3.59;100.00
41636;BME280;27623;51.966;4.602;2022-12-11T14:16:31;63594.75;;;3.51;100.00
41636;BME280;27623;51.966;4.602;2022-12-11T14:19:04;63594.56;;;3.48;100.00
41636;BME280;27623;51.966;4.602;2022-12-11T14:21:30;63595.09;;;3.49;100.00